San Jon, NM

6:56 AM MDT on July 25, 2014 (GMT -0600)
Clovis Municipal (KCVN) Elev 4216 ft | 34.43 °N, 103.08 °W | Change Station

Current weather conditions updated 2 hours ago

Clear
Clear
70 °F
Feels Like 70 °F
N
10
Wind Variable Wind from South

Today is forecast to be Much Warmer than yesterday.

Today
High -- | Low -- °F
--% Chance of Precip.
Yesterday
High -- | Low -- °F
Precip. -- in
5:57 AM 8:01 PM
Waning Crescent, 2% visible
Pressure 30.17 in
Visibility 10.0 miles
Clouds Clear
Dew Point 57 °F
Humidity 64%
Rainfall 0.00 in
Snow Depth Not available.
UV 0 out of 12
Pollen 5.10 out of 12
Air Quality Not available.
Flu Activity Not available.
METAR KCVN 251056Z AUTO 19009KT 10SM CLR 21/14 A3017 RMK AO1

More Conditions Fewer Conditions

Pressure 30.17 in
Visibility 10.0 miles
Clouds Clear
Dew Point 57 °F
Humidity 64%
Rainfall 0.00 in
Snow Depth Not available.
UV 0 out of 12
Pollen 5.10 out of 12
Air Quality Not available.
Flu Activity Not available.
METAR KCVN 251056Z AUTO 19009KT 10SM CLR 21/14 A3017 RMK AO1

More Conditions Fewer Conditions

10-Day Weather Forecast

Almanac

Astronomy

Jul. 25, 2014 Rise Set
Actual Time 5:57 AM MDT 8:01 PM MDT
Civil Twilight 5:29 AM MDT 8:30 PM MDT
Nautical Twilight 4:54 AM MDT 9:04 PM MDT
Astronomical Twilight 4:17 AM MDT 9:41 PM MDT
Moon 4:57 AM MDT 7:02 PM MDT
Length of Visible Light 15h 01m
Length of Day
14h 04m
Tomorrow will be 1m 28s shorter.
Waning Crescent, 2% of the Moon is Illuminated
Today
Waning Crescent
Jul 26
New
Aug 3
First Quarter
Aug 10
Full
Aug 17
Last Quarter

Today's Extremes

State Highs State Lows

Community

WunderPhotos

Upload Photos

1,737,308 photos uploaded!

Nearby

Snow Depth

Station Depth Elevation
Wesner Springs 2 in 11120 ft
Tolby 1 in 10180 ft
Gallegos Peak 0 in 9800 ft
Santa Fe 1 in 11445 ft
Red River Pass #2 0 in 9850 ft

Earthquake Activity

City Distance Mag. Time & Date
No recent earthquake activity has been reported nearby.
Minimum magnitude displayed is 2.5.

Coastal Water Temperatures

Place Temperature
No Stations Reporting

Nearby Weather Stations

Station Location Temp. Heat Index Dew Point Humidity Wind Precip. Elev Updated Type
MesoWest MATERW , Tucumcari, NM 73 °F 71 °F - - North  at  0 mph 0.00 in / hr 4160 ft 3:55 AM MDT MADIS

Show More Stations Show Fewer Stations